Time;durP1;ratioP1;P1;durP2;ratioP2;P2;SDS_P1;SDS_P2;PMS_P1;PMS_P2;Temp;Humidity;BMP_temperature;BMP_pressure;BME280_temperature;BME280_humidity;BME280_pressure;Samples;Min_cycle;Max_cycle;Signal;HPM_P1;HPM_P2
2024/03/12 00:00:38;;;;;;;27.40;14.15;;;8.50;99.90;;;;;;5057081;28;20014;-77
2024/03/12 00:03:09;;;;;;;27.15;13.43;;;8.50;99.90;;;;;;5038223;28;20049;-76
2024/03/12 00:05:35;;;;;;;24.95;12.52;;;8.50;99.90;;;;;;5023905;28;20029;-77
2024/03/12 00:08:01;;;;;;;24.58;12.63;;;8.40;99.90;;;;;;5039857;28;20025;-78
2024/03/12 00:10:27;;;;;;;32.20;13.55;;;8.40;99.90;;;;;;5040449;28;20021;-77
2024/03/12 00:12:53;;;;;;;24.83;12.73;;;8.40;99.90;;;;;;5039253;28;20089;-77
2024/03/12 00:15:21;;;;;;;25.00;13.27;;;8.40;99.90;;;;;;5037185;28;20049;-76
2024/03/12 00:17:47;;;;;;;28.40;14.23;;;8.30;99.90;;;;;;5022384;28;20040;-77
2024/03/12 00:20:29;;;;;;;24.17;12.73;;;8.30;99.90;;;;;;5037327;28;20033;-77
2024/03/12 00:22:55;;;;;;;26.50;13.18;;;8.30;99.90;;;;;;5040880;28;20214;-76
2024/03/12 00:25:22;;;;;;;26.60;13.63;;;8.30;99.90;;;;;;5039468;28;20191;-77
2024/03/12 00:27:50;;;;;;;25.60;12.73;;;8.20;99.90;;;;;;5039155;28;20036;-76
2024/03/12 00:30:18;;;;;;;25.08;12.75;;;8.20;99.90;;;;;;5039446;28;20026;-75
2024/03/12 00:32:47;;;;;;;26.90;13.40;;;8.20;99.90;;;;;;5039427;28;20088;-77
2024/03/12 00:35:13;;;;;;;22.02;12.07;;;8.10;99.90;;;;;;5040516;28;20092;-76
2024/03/12 00:37:39;;;;;;;26.90;12.13;;;8.10;99.90;;;;;;5055319;28;20071;-76
2024/03/12 00:40:13;;;;;;;22.70;12.38;;;8.10;99.90;;;;;;5033989;28;20071;-76
2024/03/12 00:42:40;;;;;;;21.95;11.25;;;8.00;99.90;;;;;;5033452;28;20195;-76
2024/03/12 00:45:13;;;;;;;26.00;14.68;;;8.00;99.90;;;;;;5032489;28;20029;-75
2024/03/12 00:47:40;;;;;;;24.23;10.43;;;8.00;99.90;;;;;;5049064;28;20037;-76
2024/03/12 00:50:07;;;;;;;24.75;12.20;;;8.00;99.90;;;;;;5031624;28;20025;-76
2024/03/12 00:52:33;;;;;;;22.98;11.77;;;7.90;99.90;;;;;;5031684;28;20083;-76
2024/03/12 00:55:04;;;;;;;23.48;11.48;;;7.90;99.90;;;;;;5031662;28;20044;-76
2024/03/12 00:57:30;;;;;;;32.03;12.88;;;7.90;99.90;;;;;;5048952;28;20052;-76
2024/03/12 00:59:57;;;;;;;26.38;12.00;;;7.90;99.90;;;;;;5031397;28;20029;-76
2024/03/12 01:02:25;;;;;;;23.15;12.27;;;8.00;99.90;;;;;;5048694;28;20044;-76
2024/03/12 01:04:52;;;;;;;18.73;10.00;;;8.00;99.90;;;;;;5031555;28;20051;-76
2024/03/12 01:07:19;;;;;;;20.98;9.82;;;7.90;99.90;;;;;;5048758;28;20157;-76
2024/03/12 01:09:46;;;;;;;19.05;9.50;;;7.90;99.90;;;;;;5048714;28;20171;-76
2024/03/12 01:12:13;;;;;;;19.27;9.27;;;7.90;99.90;;;;;;5048419;28;20040;-76
2024/03/12 01:14:39;;;;;;;24.02;11.23;;;7.90;99.90;;;;;;5048200;28;20037;-77
2024/03/12 01:17:07;;;;;;;17.20;9.32;;;7.90;99.90;;;;;;5031031;28;20038;-76
2024/03/12 01:19:35;;;;;;;17.30;8.77;;;7.90;99.90;;;;;;5031523;28;20186;-77
2024/03/12 01:22:04;;;;;;;16.35;9.85;;;7.90;99.90;;;;;;5014637;28;20268;-76
2024/03/12 01:24:30;;;;;;;18.58;9.65;;;7.90;99.90;;;;;;5031160;28;20084;-76
2024/03/12 01:26:56;;;;;;;14.50;7.35;;;7.90;99.90;;;;;;5030832;28;20149;-76
2024/03/12 01:29:22;;;;;;;17.35;8.27;;;7.80;99.90;;;;;;5048303;28;20068;-76
2024/03/12 01:31:50;;;;;;;14.00;7.97;;;7.80;99.90;;;;;;5048381;28;20048;-77
2024/03/12 01:34:18;;;;;;;12.57;7.78;;;7.90;99.90;;;;;;5014668;28;20032;-77
2024/03/12 01:36:47;;;;;;;15.63;7.78;;;7.80;99.90;;;;;;5030496;28;20025;-76
2024/03/12 01:39:16;;;;;;;15.60;7.82;;;7.80;99.90;;;;;;5047946;28;20140;-77
2024/03/12 01:41:44;;;;;;;13.37;7.77;;;7.80;99.90;;;;;;5030627;28;20044;-77
2024/03/12 01:44:11;;;;;;;12.27;6.55;;;7.80;99.90;;;;;;5014527;28;20362;-77
2024/03/12 01:46:36;;;;;;;11.90;6.35;;;7.80;99.90;;;;;;5030161;28;20337;-77
2024/03/12 01:49:05;;;;;;;12.55;6.70;;;7.80;99.90;;;;;;5030559;28;20029;-76
2024/03/12 01:51:31;;;;;;;10.43;5.78;;;7.70;99.90;;;;;;5014024;28;20282;-76
2024/03/12 01:53:57;;;;;;;10.93;6.10;;;7.80;99.90;;;;;;5030437;28;20072;-76
2024/03/12 01:56:26;;;;;;;12.98;7.40;;;7.70;99.90;;;;;;5030337;28;20052;-76
2024/03/12 01:58:52;;;;;;;9.90;5.60;;;7.70;99.90;;;;;;5030696;28;20025;-76
2024/03/12 02:01:21;;;;;;;10.98;5.38;;;7.70;99.90;;;;;;5030327;28;20175;-76
2024/03/12 02:03:48;;;;;;;12.63;6.43;;;7.70;99.90;;;;;;5030670;28;20037;-75
2024/03/12 02:06:13;;;;;;;7.80;4.30;;;7.80;99.90;;;;;;5030328;28;20067;-76
2024/03/12 02:08:40;;;;;;;10.15;6.00;;;7.70;99.90;;;;;;5030013;28;20052;-76
2024/03/12 02:11:05;;;;;;;8.77;4.72;;;7.70;99.90;;;;;;5030153;28;20036;-76
2024/03/12 02:13:31;;;;;;;10.23;4.88;;;7.80;99.90;;;;;;5030066;28;20034;-76
2024/03/12 02:15:58;;;;;;;6.65;3.95;;;7.70;99.90;;;;;;5030046;28;20021;-76
2024/03/12 02:18:23;;;;;;;8.13;4.03;;;7.70;99.90;;;;;;5029990;28;20040;-76
2024/03/12 02:20:49;;;;;;;7.78;3.45;;;7.70;99.90;;;;;;5046927;28;20025;-76
2024/03/12 02:23:15;;;;;;;6.88;3.65;;;7.70;99.90;;;;;;5013314;28;20029;-76
2024/03/12 02:25:42;;;;;;;7.10;3.90;;;7.70;99.90;;;;;;5013425;28;20037;-76
2024/03/12 02:28:08;;;;;;;4.75;2.80;;;7.70;99.90;;;;;;5030169;28;20022;-76
2024/03/12 02:30:34;;;;;;;8.27;3.22;;;7.70;99.90;;;;;;5029837;28;20085;-76
2024/03/12 02:33:02;;;;;;;6.60;2.83;;;7.70;99.90;;;;;;5029641;28;20087;-76
2024/03/12 02:35:28;;;;;;;5.45;2.40;;;7.80;99.90;;;;;;5013503;28;20029;-76
2024/03/12 02:37:54;;;;;;;5.43;2.88;;;7.80;99.90;;;;;;5029357;28;20135;-76
2024/03/12 02:40:20;;;;;;;3.97;1.70;;;7.90;99.90;;;;;;5029582;28;20299;-76
2024/03/12 02:42:46;;;;;;;5.15;2.17;;;7.90;99.90;;;;;;5013000;28;20045;-76
2024/03/12 02:45:14;;;;;;;4.78;1.98;;;8.00;99.90;;;;;;5029180;28;20072;-75
2024/03/12 02:47:41;;;;;;;3.63;2.00;;;8.00;99.90;;;;;;5013418;28;20040;-76
2024/03/12 02:50:08;;;;;;;6.30;2.15;;;8.10;99.90;;;;;;5029593;28;20025;-76
2024/03/12 02:52:33;;;;;;;5.82;2.13;;;8.10;99.90;;;;;;5046517;28;20305;-76
2024/03/12 02:55:00;;;;;;;4.25;1.85;;;8.20;99.90;;;;;;5029101;28;20021;-76
2024/03/12 02:57:26;;;;;;;5.65;2.78;;;8.20;99.90;;;;;;5029037;28;20096;-76
2024/03/12 02:59:52;;;;;;;6.93;2.72;;;8.20;99.90;;;;;;5029073;28;20048;-75
2024/03/12 03:02:18;;;;;;;5.72;1.80;;;8.20;99.90;;;;;;5029053;28;20029;-76
2024/03/12 03:04:44;;;;;;;6.07;2.00;;;8.20;99.90;;;;;;5028978;28;20279;-76
2024/03/12 03:07:11;;;;;;;3.83;1.70;;;8.30;99.90;;;;;;5046391;28;20029;-76
2024/03/12 03:09:37;;;;;;;3.33;1.65;;;8.30;99.90;;;;;;5046051;28;20013;-76
2024/03/12 03:12:02;;;;;;;5.20;1.60;;;8.30;99.90;;;;;;5028959;28;20025;-76
2024/03/12 03:14:28;;;;;;;2.50;1.40;;;8.40;99.90;;;;;;5028819;28;20056;-76
2024/03/12 03:16:54;;;;;;;2.33;1.50;;;8.40;99.90;;;;;;5046318;28;20133;-76
2024/03/12 03:19:20;;;;;;;4.65;1.85;;;8.50;99.90;;;;;;5046214;28;20067;-76
2024/03/12 03:21:46;;;;;;;2.65;1.40;;;8.60;99.90;;;;;;5028733;28;20033;-76
2024/03/12 03:24:12;;;;;;;3.58;1.30;;;8.60;99.90;;;;;;5028595;28;20045;-76
2024/03/12 03:26:38;;;;;;;4.32;1.50;;;8.60;99.90;;;;;;5045877;28;20194;-76
2024/03/12 03:29:03;;;;;;;3.88;1.70;;;8.60;99.90;;;;;;5028640;28;20195;-76
2024/03/12 03:31:29;;;;;;;2.75;1.35;;;8.70;99.90;;;;;;5028673;28;20053;-76
2024/03/12 03:33:55;;;;;;;5.32;1.75;;;8.70;99.90;;;;;;5028624;28;20132;-76
2024/03/12 03:36:21;;;;;;;4.10;1.27;;;8.70;99.90;;;;;;5028551;28;20083;-76
2024/03/12 03:38:47;;;;;;;3.17;1.25;;;8.80;99.90;;;;;;5028350;28;20033;-76
2024/03/12 03:41:12;;;;;;;2.63;1.25;;;8.80;99.90;;;;;;5028341;28;20083;-76
2024/03/12 03:43:39;;;;;;;4.30;1.20;;;8.90;99.90;;;;;;5045911;28;20037;-76
2024/03/12 03:46:05;;;;;;;2.03;1.00;;;8.90;99.90;;;;;;5028444;28;20069;-76
2024/03/12 03:48:30;;;;;;;2.83;1.20;;;8.90;99.90;;;;;;5028286;28;20044;-76
2024/03/12 03:50:56;;;;;;;2.60;1.10;;;9.00;99.90;;;;;;5028370;28;20025;-76
2024/03/12 03:53:22;;;;;;;2.33;1.25;;;9.00;99.90;;;;;;5028345;28;20235;-76
2024/03/12 03:55:47;;;;;;;2.15;1.08;;;9.00;99.90;;;;;;5028275;28;20088;-76
2024/03/12 03:58:13;;;;;;;2.53;1.00;;;9.10;99.90;;;;;;5028139;28;20038;-75
2024/03/12 04:00:39;;;;;;;1.50;1.00;;;9.10;99.90;;;;;;5028148;28;20084;-76
2024/03/12 04:03:06;;;;;;;3.08;1.13;;;9.10;99.90;;;;;;5028428;28;20029;-75
2024/03/12 04:05:35;;;;;;;2.10;1.00;;;9.10;99.90;;;;;;5045617;28;20025;-76
2024/03/12 04:08:01;;;;;;;1.33;0.82;;;9.10;99.90;;;;;;5012058;28;20021;-75
2024/03/12 04:10:27;;;;;;;1.63;1.00;;;9.10;99.90;;;;;;5027889;28;20025;-76
2024/03/12 04:12:56;;;;;;;2.85;1.27;;;9.10;99.90;;;;;;5011555;28;20029;-76
2024/03/12 04:15:22;;;;;;;2.78;1.00;;;9.10;99.90;;;;;;5028307;28;20025;-76
2024/03/12 04:17:48;;;;;;;2.45;1.02;;;9.10;99.90;;;;;;5028099;28;20230;-76
2024/03/12 04:20:16;;;;;;;4.40;1.20;;;9.10;99.90;;;;;;5027911;28;20033;-76
2024/03/12 04:22:45;;;;;;;2.67;1.00;;;9.10;99.90;;;;;;5028281;28;20028;-76
2024/03/12 04:25:12;;;;;;;2.65;1.20;;;9.10;99.90;;;;;;5011938;28;20235;-76
2024/03/12 04:27:38;;;;;;;1.92;0.90;;;9.20;99.90;;;;;;5028155;28;20283;-76
2024/03/12 04:30:05;;;;;;;4.68;1.20;;;9.20;99.90;;;;;;5028024;28;20033;-76
2024/03/12 04:32:31;;;;;;;2.88;1.20;;;9.20;99.90;;;;;;5027734;28;20041;-76
2024/03/12 04:34:56;;;;;;;3.58;1.10;;;9.20;99.90;;;;;;5027823;28;20033;-76
2024/03/12 04:37:22;;;;;;;1.58;0.90;;;9.20;99.90;;;;;;5027916;28;20095;-76
2024/03/12 04:39:48;;;;;;;3.17;1.50;;;9.30;99.90;;;;;;5027876;28;20025;-76
2024/03/12 04:42:14;;;;;;;2.83;1.13;;;9.30;99.90;;;;;;5011212;28;20029;-77
2024/03/12 04:44:40;;;;;;;3.70;1.20;;;9.30;99.90;;;;;;5027645;28;20045;-77
2024/03/12 04:47:05;;;;;;;2.08;0.95;;;9.30;99.90;;;;;;5027691;28;20076;-77
2024/03/12 04:49:31;;;;;;;1.75;0.90;;;9.30;99.90;;;;;;5044192;28;20036;-77
2024/03/12 04:51:57;;;;;;;2.63;1.10;;;9.30;99.90;;;;;;5027719;28;20041;-76
2024/03/12 04:54:22;;;;;;;1.83;1.00;;;9.30;99.90;;;;;;5011125;28;20290;-77
2024/03/12 04:56:50;;;;;;;1.90;0.90;;;9.30;99.90;;;;;;5027651;28;20334;-77
2024/03/12 04:59:16;;;;;;;1.77;1.15;;;9.30;99.90;;;;;;5027993;28;20270;-77
2024/03/12 05:01:47;;;;;;;0.93;0.80;;;9.30;99.90;;;;;;5027606;28;20033;-77
2024/03/12 05:04:13;;;;;;;1.13;0.80;;;9.30;99.90;;;;;;5027750;28;20025;-77
2024/03/12 05:06:39;;;;;;;2.25;1.02;;;9.40;99.90;;;;;;5027543;28;20091;-77
2024/03/12 05:09:06;;;;;;;1.25;0.90;;;9.40;99.90;;;;;;5027677;28;20018;-77
2024/03/12 05:11:32;;;;;;;2.45;1.00;;;9.40;99.90;;;;;;5044982;28;20040;-77
2024/03/12 05:13:57;;;;;;;2.08;0.80;;;9.40;99.90;;;;;;5010946;28;20038;-77
2024/03/12 05:16:27;;;;;;;2.85;1.10;;;9.40;99.90;;;;;;5010982;28;20029;-76
2024/03/12 05:18:53;;;;;;;1.85;0.77;;;9.40;99.90;;;;;;5027601;28;20157;-76
2024/03/12 05:21:18;;;;;;;2.83;0.90;;;9.40;99.90;;;;;;5012200;28;20029;-76
2024/03/12 05:23:44;;;;;;;1.58;0.80;;;9.40;99.90;;;;;;5031259;28;20190;-76
2024/03/12 05:26:11;;;;;;;1.45;0.90;;;9.40;99.90;;;;;;5030886;28;20156;-77
2024/03/12 05:28:37;;;;;;;2.50;1.10;;;9.40;99.90;;;;;;5014582;28;20036;-77
2024/03/12 05:31:03;;;;;;;2.80;0.98;;;9.50;99.90;;;;;;5030780;28;20079;-76
2024/03/12 05:33:30;;;;;;;2.38;1.00;;;9.50;99.90;;;;;;5014118;28;20025;-77
2024/03/12 05:35:56;;;;;;;2.08;0.85;;;9.50;99.90;;;;;;5048264;28;20029;-77
2024/03/12 05:38:32;;;;;;;3.78;1.10;;;9.50;99.90;;;;;;5047973;28;20299;-77
2024/03/12 05:41:14;;;;;;;4.13;1.40;;;9.60;99.90;;;;;;5032274;28;20033;-76
2024/03/12 05:49:09;;;;;;;2.25;0.77;;;9.60;99.90;;;;;;5048123;28;20099;-77
2024/03/12 05:51:37;;;;;;;5.15;1.30;;;9.60;99.90;;;;;;5030584;28;20272;-77
2024/03/12 05:54:06;;;;;;;1.63;0.77;;;9.60;99.90;;;;;;5047735;28;20025;-77
2024/03/12 05:56:32;;;;;;;3.05;0.80;;;9.60;99.90;;;;;;5030646;28;20025;-77
2024/03/12 05:59:00;;;;;;;3.33;1.10;;;9.60;99.90;;;;;;5047803;28;20097;-77
2024/03/12 06:01:27;;;;;;;4.32;0.93;;;9.60;99.90;;;;;;5014186;28;20178;-76
2024/03/12 06:03:53;;;;;;;2.78;1.00;;;9.60;99.90;;;;;;5047642;28;20302;-76
2024/03/12 06:06:19;;;;;;;2.20;0.98;;;9.60;99.90;;;;;;5047680;28;20290;-76
2024/03/12 06:08:45;;;;;;;2.53;0.95;;;9.60;99.90;;;;;;5013819;28;20026;-75
2024/03/12 06:11:14;;;;;;;5.25;1.48;;;9.60;99.90;;;;;;5013684;28;20059;-76
2024/03/12 06:13:39;;;;;;;1.17;0.70;;;9.60;99.90;;;;;;5030726;28;20029;-76
2024/03/12 06:16:06;;;;;;;2.35;0.88;;;9.60;99.90;;;;;;5030138;28;20282;-76
2024/03/12 06:18:31;;;;;;;3.08;1.23;;;9.60;99.90;;;;;;5029967;28;20079;-76
2024/03/12 06:20:57;;;;;;;3.15;0.90;;;9.60;99.90;;;;;;5030133;28;20029;-76
2024/03/12 06:23:25;;;;;;;3.00;1.00;;;9.70;99.90;;;;;;5029844;28;20041;-76
2024/03/12 06:25:51;;;;;;;4.45;1.00;;;9.70;99.90;;;;;;5030182;28;20271;-75
2024/03/12 06:28:17;;;;;;;3.17;1.10;;;9.70;99.90;;;;;;5047168;28;20037;-74
2024/03/12 06:30:43;;;;;;;3.05;1.08;;;9.80;99.90;;;;;;5029460;28;20025;-75
2024/03/12 06:33:08;;;;;;;4.57;1.25;;;9.90;99.90;;;;;;5046007;28;20025;-75
2024/03/12 06:35:35;;;;;;;5.70;1.40;;;9.90;99.90;;;;;;5029802;28;20314;-75
2024/03/12 06:38:01;;;;;;;7.60;1.50;;;10.00;99.90;;;;;;5029590;28;20029;-75
2024/03/12 06:40:27;;;;;;;7.57;1.63;;;10.00;99.90;;;;;;5035228;28;20051;-75
2024/03/12 06:42:52;;;;;;;7.95;1.60;;;10.10;99.90;;;;;;5029829;28;20056;-75
2024/03/12 06:45:18;;;;;;;13.23;2.58;;;10.20;99.90;;;;;;5029023;28;20065;-75
2024/03/12 06:47:46;;;;;;;14.05;2.75;;;10.20;99.90;;;;;;5045376;28;20171;-75
2024/03/12 06:50:12;;;;;;;17.63;2.42;;;10.40;99.90;;;;;;5029208;28;20148;-74
2024/03/12 06:52:38;;;;;;;18.15;3.30;;;10.40;99.90;;;;;;5012725;28;20033;-75
2024/03/12 06:55:04;;;;;;;21.45;3.10;;;10.40;99.90;;;;;;5046598;28;20081;-75
2024/03/12 06:57:34;;;;;;;28.73;4.05;;;10.40;99.90;;;;;;5045569;28;20025;-75
2024/03/12 07:00:08;;;;;;;28.83;4.90;;;10.30;99.90;;;;;;5029753;28;20033;-76
2024/03/12 07:02:38;;;;;;;26.60;3.72;;;10.30;99.90;;;;;;5030365;28;20067;-75
2024/03/12 07:05:04;;;;;;;34.05;4.70;;;10.30;99.90;;;;;;5012887;28;20053;-76
2024/03/12 07:07:31;;;;;;;25.45;4.85;;;10.30;99.90;;;;;;5046122;28;20025;-76
2024/03/12 07:09:59;;;;;;;26.83;5.20;;;10.20;99.90;;;;;;5028896;28;20017;-75
2024/03/12 07:12:25;;;;;;;31.17;5.13;;;10.30;99.90;;;;;;5029355;28;20029;-76
2024/03/12 07:14:56;;;;;;;46.38;6.38;;;10.20;99.90;;;;;;5028871;28;20029;-76
2024/03/12 07:17:22;;;;;;;24.55;4.80;;;10.20;99.90;;;;;;5046404;28;20191;-76
2024/03/12 07:19:49;;;;;;;32.53;6.00;;;10.30;99.90;;;;;;5046378;28;20029;-76
2024/03/12 07:22:17;;;;;;;39.70;5.65;;;10.20;99.90;;;;;;5044930;28;20048;-76
2024/03/12 07:24:43;;;;;;;31.65;6.07;;;10.30;99.90;;;;;;5028954;28;20029;-75
2024/03/12 07:27:09;;;;;;;26.92;5.15;;;10.20;99.90;;;;;;5028572;28;20037;-76
2024/03/12 07:29:35;;;;;;;37.95;5.68;;;10.30;99.90;;;;;;5028783;28;20021;-75
2024/03/12 07:32:02;;;;;;;44.95;6.45;;;10.30;99.90;;;;;;5012168;28;20156;-76
2024/03/12 07:34:29;;;;;;;34.22;6.10;;;10.30;99.90;;;;;;5028669;28;20032;-76
2024/03/12 07:36:56;;;;;;;35.03;5.50;;;10.40;99.90;;;;;;5028744;28;20329;-76
2024/03/12 07:39:25;;;;;;;47.55;6.78;;;10.30;99.90;;;;;;5028341;28;20026;-76
2024/03/12 07:41:54;;;;;;;47.70;6.82;;;10.30;99.90;;;;;;5028193;28;20033;-76
2024/03/12 07:44:20;;;;;;;33.70;5.85;;;10.30;99.90;;;;;;5011457;28;20041;-76
2024/03/12 07:46:47;;;;;;;51.63;10.00;;;10.30;99.90;;;;;;5027926;28;20045;-77
2024/03/12 07:49:13;;;;;;;58.92;11.52;;;10.30;99.90;;;;;;5045653;28;20294;-76
2024/03/12 07:51:39;;;;;;;50.33;9.63;;;10.30;99.90;;;;;;5045772;28;20079;-76
2024/03/12 07:54:07;;;;;;;52.50;9.38;;;10.30;99.90;;;;;;5028433;28;20033;-76
2024/03/12 07:56:35;;;;;;;47.33;7.60;;;10.30;99.90;;;;;;5028335;28;20037;-76
2024/03/12 07:59:01;;;;;;;44.55;7.55;;;10.30;99.90;;;;;;5028503;28;20063;-76
2024/03/12 08:01:26;;;;;;;41.42;8.88;;;10.30;99.90;;;;;;5045671;28;20026;-76
2024/03/12 08:03:53;;;;;;;49.80;8.75;;;10.30;99.90;;;;;;5011548;28;20040;-76
2024/03/12 08:06:20;;;;;;;53.15;11.95;;;10.30;99.90;;;;;;5027953;28;20025;-76
2024/03/12 08:08:48;;;;;;;54.25;9.38;;;10.30;99.90;;;;;;5027832;28;20331;-76
2024/03/12 08:11:14;;;;;;;51.20;9.18;;;10.30;99.90;;;;;;5011584;28;20029;-76
2024/03/12 08:13:40;;;;;;;49.70;8.70;;;10.30;99.90;;;;;;5027564;28;20021;-76
2024/03/12 08:16:06;;;;;;;39.30;8.60;;;10.40;99.90;;;;;;5045500;28;20045;-76
2024/03/12 08:18:32;;;;;;;34.03;6.50;;;10.40;99.90;;;;;;5011476;28;20039;-76
2024/03/12 08:20:58;;;;;;;53.45;7.38;;;10.50;99.90;;;;;;5045083;28;20053;-76
2024/03/12 08:23:24;;;;;;;43.33;6.68;;;10.50;99.90;;;;;;5028231;28;20025;-76
2024/03/12 08:25:49;;;;;;;43.22;5.88;;;10.40;99.90;;;;;;5011459;28;20295;-76
2024/03/12 08:28:16;;;;;;;36.75;5.78;;;10.50;99.90;;;;;;5011200;28;20025;-76
2024/03/12 08:30:46;;;;;;;41.42;6.63;;;10.60;99.90;;;;;;5027893;28;20029;-76
2024/03/12 08:33:12;;;;;;;29.63;5.78;;;10.60;99.90;;;;;;5027588;28;20029;-76
2024/03/12 08:35:37;;;;;;;26.85;4.50;;;10.60;99.90;;;;;;5044914;28;20072;-76
2024/03/12 08:38:04;;;;;;;35.75;6.60;;;10.70;99.90;;;;;;5045245;28;20346;-76
2024/03/12 08:40:30;;;;;;;27.60;5.13;;;10.80;99.90;;;;;;5010981;28;20067;-76
2024/03/12 08:42:56;;;;;;;28.42;7.00;;;10.90;99.90;;;;;;5027073;28;20029;-75
2024/03/12 08:45:22;;;;;;;20.67;4.60;;;11.20;99.90;;;;;;5010755;28;20095;-75
2024/03/12 08:47:48;;;;;;;23.27;5.75;;;11.20;99.90;;;;;;5010722;28;20045;-75
2024/03/12 08:50:14;;;;;;;28.33;4.15;;;11.20;99.90;;;;;;5027581;28;20075;-76
2024/03/12 08:52:40;;;;;;;20.95;4.43;;;11.20;99.90;;;;;;5027022;28;20040;-75
2024/03/12 08:55:06;;;;;;;24.58;4.32;;;11.30;99.90;;;;;;5044633;28;20029;-75
2024/03/12 08:57:32;;;;;;;25.10;3.95;;;11.50;99.90;;;;;;5030070;28;20036;-76
2024/03/12 08:59:59;;;;;;;20.35;3.55;;;12.30;99.90;;;;;;5048506;28;20034;-76
2024/03/12 09:02:25;;;;;;;24.63;4.25;;;13.00;99.90;;;;;;5031108;28;20187;-75
2024/03/12 09:04:51;;;;;;;20.73;4.03;;;13.40;99.90;;;;;;5030930;28;20021;-75
2024/03/12 09:07:17;;;;;;;18.92;3.20;;;13.90;99.90;;;;;;5031098;28;20040;-75
2024/03/12 09:09:42;;;;;;;15.63;3.28;;;14.20;99.90;;;;;;5047359;28;20053;-75
2024/03/12 09:12:08;;;;;;;17.60;3.03;;;14.70;99.90;;;;;;5014728;28;20025;-75
2024/03/12 09:14:35;;;;;;;13.38;2.72;;;15.30;99.90;;;;;;5030603;28;20053;-75
2024/03/12 09:17:05;;;;;;;16.65;2.90;;;15.10;99.90;;;;;;5048237;28;20108;-76
2024/03/12 09:19:31;;;;;;;14.25;2.63;;;14.40;99.90;;;;;;5048318;28;20036;-75
2024/03/12 09:21:58;;;;;;;16.88;2.78;;;13.60;99.90;;;;;;5048526;28;20393;-75
2024/03/12 09:24:24;;;;;;;15.00;3.05;;;12.90;99.90;;;;;;5047788;28;20022;-75
2024/03/12 09:26:51;;;;;;;17.38;2.53;;;12.60;99.90;;;;;;5046913;28;20056;-75
2024/03/12 09:29:17;;;;;;;16.23;4.00;;;12.50;99.90;;;;;;5047959;28;20022;-75
2024/03/12 09:31:43;;;;;;;16.25;2.72;;;12.50;99.90;;;;;;5016097;28;20041;-74
2024/03/12 09:34:12;;;;;;;14.18;3.35;;;12.70;99.90;;;;;;5032176;28;20026;-74
2024/03/12 09:36:38;;;;;;;13.97;2.63;;;13.90;99.90;;;;;;5033450;28;20195;-76
2024/03/12 09:39:10;;;;;;;18.40;3.25;;;14.90;99.90;;;;;;5018034;28;20040;-74
2024/03/12 09:41:38;;;;;;;14.02;3.25;;;15.40;99.90;;;;;;5050819;28;20232;-75
2024/03/12 09:44:05;;;;;;;11.57;2.35;;;15.90;99.90;;;;;;5033915;28;20052;-75
2024/03/12 09:46:31;;;;;;;15.88;2.55;;;16.10;99.90;;;;;;5051215;28;20064;-75
2024/03/12 09:48:56;;;;;;;12.32;2.47;;;16.40;99.90;;;;;;5033268;28;20021;-76
2024/03/12 09:51:22;;;;;;;13.55;2.00;;;16.60;99.90;;;;;;5034084;28;20064;-76
2024/03/12 09:53:48;;;;;;;12.52;1.80;;;16.80;99.90;;;;;;5018570;28;20064;-75
2024/03/12 09:56:16;;;;;;;16.23;2.45;;;16.80;99.90;;;;;;5031303;28;20033;-75
2024/03/12 09:58:43;;;;;;;13.85;2.25;;;17.40;99.90;;;;;;5051045;28;20064;-75
2024/03/12 10:01:10;;;;;;;21.63;4.05;;;18.00;99.90;;;;;;5035292;28;20025;-76
2024/03/12 10:03:35;;;;;;;15.23;2.70;;;18.30;99.90;;;;;;5036672;28;20021;-76
2024/03/12 10:06:02;;;;;;;11.75;2.72;;;18.20;99.90;;;;;;5022501;28;20029;-76
2024/03/12 10:08:28;;;;;;;18.58;3.22;;;18.00;99.90;;;;;;5051650;28;20024;-76
2024/03/12 10:10:54;;;;;;;15.05;2.38;;;17.80;99.90;;;;;;5054937;28;20057;-76
2024/03/12 10:13:19;;;;;;;13.15;2.65;;;17.10;99.90;;;;;;5039327;28;20052;-75
2024/03/12 10:15:58;;;;;;;8.95;2.30;;;17.20;99.90;;;;;;5023494;28;20022;-75
2024/03/12 10:18:26;;;;;;;8.18;1.70;;;17.40;99.90;;;;;;5020489;28;20108;-76
2024/03/12 10:21:00;;;;;;;7.90;2.03;;;17.30;99.90;;;;;;5035318;28;20140;-76
2024/03/12 10:23:29;;;;;;;9.48;2.25;;;17.00;99.90;;;;;;5039470;28;20085;-75
2024/03/12 10:26:18;;;;;;;12.73;2.50;;;16.80;99.90;;;;;;5038410;28;20022;-75
2024/03/12 10:28:45;;;;;;;11.18;2.50;;;16.60;99.90;;;;;;5037816;28;20033;-75
2024/03/12 10:31:11;;;;;;;12.95;2.60;;;16.80;99.90;;;;;;5032428;28;20029;-75
2024/03/12 10:33:42;;;;;;;20.15;3.70;;;17.00;99.90;;;;;;5053701;28;20060;-76
2024/03/12 10:36:11;;;;;;;19.05;3.25;;;17.00;99.90;;;;;;5036594;28;20235;-75
2024/03/12 10:38:37;;;;;;;12.88;2.80;;;17.20;99.90;;;;;;5051443;28;20072;-75
2024/03/12 10:41:18;;;;;;;15.05;2.85;;;17.80;99.90;;;;;;5049716;28;20029;-75
2024/03/12 10:43:49;;;;;;;19.58;4.75;;;16.70;99.90;;;;;;5015965;28;20033;-74
2024/03/12 10:46:16;;;;;;;16.83;3.08;;;15.70;99.90;;;;;;5029973;28;20188;-74
2024/03/12 10:48:42;;;;;;;18.55;4.15;;;15.30;99.90;;;;;;5028867;28;20037;-74
2024/03/12 10:51:12;;;;;;;17.58;3.00;;;14.60;99.90;;;;;;5029028;28;20071;-75
2024/03/12 10:53:38;;;;;;;14.93;2.40;;;14.40;99.90;;;;;;5013135;28;20021;-75
2024/03/12 10:56:05;;;;;;;11.85;2.40;;;14.00;99.90;;;;;;5012514;28;20198;-76
2024/03/12 10:58:32;;;;;;;14.20;2.38;;;13.90;99.90;;;;;;5029748;28;20033;-75
2024/03/12 11:00:59;;;;;;;15.50;3.80;;;13.90;99.90;;;;;;5046038;28;20029;-75
2024/03/12 11:03:24;;;;;;;18.77;3.72;;;14.60;99.90;;;;;;5012638;28;20021;-76
2024/03/12 11:05:54;;;;;;;17.27;3.25;;;15.10;99.90;;;;;;5028616;28;20037;-75
2024/03/12 11:08:19;;;;;;;12.65;2.50;;;15.40;99.90;;;;;;5028898;28;20028;-75
2024/03/12 11:10:47;;;;;;;11.77;2.50;;;14.90;99.90;;;;;;5028729;28;20026;-76
2024/03/12 11:13:15;;;;;;;14.20;3.10;;;15.30;99.90;;;;;;5012347;28;20055;-76
2024/03/12 11:15:42;;;;;;;14.23;3.40;;;15.00;99.90;;;;;;5028460;28;20108;-76
2024/03/12 11:18:09;;;;;;;14.43;2.90;;;15.10;99.90;;;;;;5028567;28;20325;-76
2024/03/12 11:20:41;;;;;;;11.75;2.88;;;15.10;99.90;;;;;;5011423;28;20029;-78
2024/03/12 11:23:07;;;;;;;15.48;4.10;;;14.90;99.90;;;;;;5028278;28;20227;-76
2024/03/12 11:25:43;;;;;;;14.70;3.25;;;14.10;99.90;;;;;;5028263;28;20036;-76
2024/03/12 11:28:26;;;;;;;22.80;6.35;;;14.00;99.90;;;;;;5028782;28;20292;-76
2024/03/12 11:30:54;;;;;;;14.15;2.78;;;13.60;99.90;;;;;;5045514;28;20034;-76
2024/03/12 11:33:38;;;;;;;15.27;3.25;;;13.00;99.90;;;;;;5027864;28;20043;-76
2024/03/12 11:36:40;;;;;;;14.38;3.20;;;12.90;99.90;;;;;;5027813;28;20076;-76
2024/03/12 11:39:11;;;;;;;16.05;3.90;;;12.80;99.90;;;;;;5040104;28;20053;-76
2024/03/12 11:42:15;;;;;;;16.00;3.97;;;12.80;99.90;;;;;;5028776;28;20021;-76
2024/03/12 11:44:52;;;;;;;15.23;3.65;;;13.00;99.90;;;;;;4949960;29;20038;-76
2024/03/12 11:47:40;;;;;;;19.50;4.40;;;12.90;99.90;;;;;;5035964;28;20288;-76
2024/03/12 11:50:42;;;;;;;17.00;3.88;;;12.80;99.90;;;;;;5028806;28;20088;-77
2024/03/12 11:53:22;;;;;;;19.98;4.03;;;13.10;99.90;;;;;;5011845;28;20021;-76
2024/03/12 11:56:10;;;;;;;20.10;3.50;;;13.10;99.90;;;;;;5010839;28;20039;-75
2024/03/12 11:58:48;;;;;;;15.10;3.00;;;13.10;99.90;;;;;;5045106;28;20025;-75
2024/03/12 12:01:19;;;;;;;13.82;3.95;;;13.40;99.90;;;;;;5012972;28;20033;-76
2024/03/12 12:03:49;;;;;;;49.25;30.80;;;13.50;99.90;;;;;;5027959;28;20027;-75
2024/03/12 12:06:15;;;;;;;19.75;6.00;;;13.40;99.90;;;;;;5028203;28;20033;-76
2024/03/12 12:08:40;;;;;;;15.82;4.75;;;13.90;99.90;;;;;;5045102;28;20092;-76
2024/03/12 12:11:09;;;;;;;11.55;3.95;;;14.80;99.90;;;;;;5027689;28;20370;-76
2024/03/12 12:13:41;;;;;;;46.55;30.27;;;15.70;99.90;;;;;;5028105;28;20029;-76
2024/03/12 12:16:07;;;;;;;12.20;2.70;;;15.30;99.90;;;;;;5011098;28;20036;-76
2024/03/12 12:18:34;;;;;;;12.75;3.15;;;15.00;99.90;;;;;;5027484;28;20037;-76
2024/03/12 12:21:04;;;;;;;10.60;3.28;;;14.10;99.90;;;;;;5027382;28;20025;-76
2024/03/12 12:23:30;;;;;;;12.40;5.97;;;14.00;99.90;;;;;;5028128;28;20029;-76
2024/03/12 12:25:56;;;;;;;11.32;4.20;;;14.20;99.90;;;;;;5028387;28;20101;-75
2024/03/12 12:28:25;;;;;;;10.10;2.83;;;15.10;99.90;;;;;;5027322;28;20053;-76
2024/03/12 12:31:02;;;;;;;15.77;4.15;;;15.30;99.90;;;;;;5027799;28;20025;-76
2024/03/12 12:33:29;;;;;;;11.73;3.80;;;14.70;99.90;;;;;;5032526;28;20294;-75
2024/03/12 12:35:55;;;;;;;16.40;4.00;;;14.60;99.90;;;;;;5031612;28;20223;-75
2024/03/12 12:38:21;;;;;;;11.10;2.97;;;14.30;99.90;;;;;;5014627;28;20034;-76
2024/03/12 12:40:48;;;;;;;10.25;2.53;;;13.90;99.90;;;;;;5014810;28;20057;-76
2024/03/12 12:43:19;;;;;;;12.82;3.63;;;13.90;99.90;;;;;;5014774;28;20037;-76
2024/03/12 12:45:54;;;;;;;18.00;3.50;;;13.90;99.90;;;;;;5032146;28;20054;-75
2024/03/12 12:48:22;;;;;;;7.50;1.92;;;13.70;99.90;;;;;;5032298;28;20028;-76
2024/03/12 12:50:55;;;;;;;11.75;3.47;;;13.50;99.90;;;;;;5048435;28;20033;-76
2024/03/12 12:53:21;;;;;;;9.70;3.03;;;13.50;99.90;;;;;;5031411;28;20101;-75